Time;durP1;ratioP1;P1;durP2;ratioP2;P2;SDS_P1;SDS_P2;PMS_P1;PMS_P2;Temp;Humidity;BMP_temperature;BMP_pressure;BME280_temperature;BME280_humidity;BME280_pressure;Samples;Min_cycle;Max_cycle;Signal;HPM_P1;HPM_P2
2023/04/28 00:00:03;;;;;;;1.98;1.17;;;13.50;55.30;;;;;;5075981;28;20025;-73
2023/04/28 00:02:28;;;;;;;3.00;1.58;;;13.50;55.40;;;;;;5075793;28;20039;-72
2023/04/28 00:04:54;;;;;;;3.20;1.50;;;13.50;56.00;;;;;;5075811;28;20025;-72
2023/04/28 00:07:20;;;;;;;1.65;1.20;;;13.50;54.80;;;;;;5075724;28;20378;-72
2023/04/28 00:09:45;;;;;;;4.60;1.60;;;13.60;54.60;;;;;;5075831;28;20021;-72
2023/04/28 00:12:11;;;;;;;1.42;1.30;;;13.60;54.30;;;;;;5057687;28;20556;-73
2023/04/28 00:14:36;;;;;;;3.05;1.52;;;13.60;54.30;;;;;;5075729;28;20476;-72
2023/04/28 00:17:02;;;;;;;4.55;1.30;;;13.60;54.30;;;;;;5075691;28;20037;-73
2023/04/28 00:19:27;;;;;;;1.67;1.05;;;13.60;54.30;;;;;;5075589;28;20027;-72
2023/04/28 00:21:53;;;;;;;3.65;1.30;;;13.60;54.60;;;;;;5075431;28;20481;-72
2023/04/28 00:24:19;;;;;;;2.33;1.25;;;13.50;54.70;;;;;;5075538;28;20051;-72
2023/04/28 00:26:44;;;;;;;2.42;1.40;;;13.50;54.80;;;;;;5075603;28;20139;-72
2023/04/28 00:29:10;;;;;;;2.63;1.40;;;13.50;54.90;;;;;;5057498;28;20414;-72
2023/04/28 00:31:35;;;;;;;2.40;1.50;;;13.50;54.90;;;;;;5075286;28;20093;-72
2023/04/28 00:34:01;;;;;;;7.80;1.65;;;13.50;54.90;;;;;;5075145;28;20070;-72
2023/04/28 00:36:30;;;;;;;2.03;1.20;;;13.50;54.80;;;;;;5075110;28;20493;-72
2023/04/28 00:38:56;;;;;;;2.22;1.50;;;13.60;54.80;;;;;;5075186;28;20489;-72
2023/04/28 00:41:22;;;;;;;3.72;1.50;;;13.60;54.90;;;;;;5075114;28;20025;-72
2023/04/28 00:43:48;;;;;;;3.88;1.33;;;13.60;54.70;;;;;;5075264;28;20036;-72
2023/04/28 00:46:28;;;;;;;2.10;1.42;;;13.60;54.70;;;;;;5057177;28;20406;-72
2023/04/28 00:48:54;;;;;;;3.05;1.50;;;13.60;55.00;;;;;;5074785;28;20032;-72
2023/04/28 00:51:20;;;;;;;3.20;1.33;;;13.60;54.80;;;;;;5074840;28;20031;-72
2023/04/28 00:53:46;;;;;;;2.15;1.10;;;13.50;54.90;;;;;;5074874;28;20058;-73
2023/04/28 00:56:12;;;;;;;3.38;1.50;;;13.50;54.90;;;;;;5075072;28;20028;-74
2023/04/28 00:58:38;;;;;;;4.53;1.30;;;13.50;55.00;;;;;;5074821;28;20025;-73
2023/04/28 01:01:05;;;;;;;2.47;1.35;;;13.50;55.10;;;;;;5074290;28;20032;-74
2023/04/28 01:03:33;;;;;;;1.17;0.98;;;13.50;55.00;;;;;;5074807;28;20048;-73
2023/04/28 01:05:59;;;;;;;1.42;1.00;;;13.50;55.10;;;;;;5074669;28;20024;-73
2023/04/28 01:08:30;;;;;;;2.30;1.40;;;13.50;54.90;;;;;;5074840;28;20029;-73
2023/04/28 01:10:55;;;;;;;1.77;1.35;;;13.50;54.90;;;;;;5074477;28;20368;-73
2023/04/28 01:13:21;;;;;;;2.47;1.10;;;13.50;54.90;;;;;;5075926;28;20048;-73
2023/04/28 01:15:46;;;;;;;3.55;1.38;;;13.50;54.90;;;;;;5057639;28;20028;-74
2023/04/28 01:18:12;;;;;;;2.15;1.30;;;13.50;54.90;;;;;;5057162;28;20040;-73
2023/04/28 01:20:38;;;;;;;2.50;1.20;;;13.50;54.90;;;;;;5074334;28;20020;-73
2023/04/28 01:23:03;;;;;;;2.88;1.40;;;13.60;54.90;;;;;;5074590;28;20032;-73
2023/04/28 01:25:29;;;;;;;2.70;1.30;;;13.60;54.90;;;;;;5074294;28;20024;-74
2023/04/28 01:27:55;;;;;;;3.85;1.20;;;13.60;55.00;;;;;;5074290;28;20497;-73
2023/04/28 01:30:20;;;;;;;2.70;1.50;;;13.60;54.90;;;;;;5074186;28;20354;-73
2023/04/28 01:32:46;;;;;;;1.67;1.08;;;13.70;54.70;;;;;;5056270;28;20020;-73
2023/04/28 01:35:11;;;;;;;1.15;1.05;;;13.70;54.60;;;;;;5074226;28;20033;-74
2023/04/28 01:37:37;;;;;;;1.65;0.90;;;13.70;54.40;;;;;;5073992;28;20566;-74
2023/04/28 01:40:03;;;;;;;1.70;1.20;;;13.70;54.30;;;;;;5074191;28;20107;-72
2023/04/28 01:42:28;;;;;;;1.23;0.90;;;13.70;54.10;;;;;;5073945;28;20032;-72
2023/04/28 01:44:54;;;;;;;1.75;1.20;;;13.70;54.10;;;;;;5073872;28;20029;-72
2023/04/28 01:47:19;;;;;;;4.03;1.30;;;13.60;53.90;;;;;;5073818;28;20074;-73
2023/04/28 01:49:47;;;;;;;1.90;1.10;;;13.70;53.80;;;;;;5073894;28;20362;-72
2023/04/28 01:52:12;;;;;;;3.85;1.17;;;13.70;53.50;;;;;;5073817;28;20021;-73
2023/04/28 01:54:38;;;;;;;3.55;1.13;;;13.70;53.10;;;;;;5073793;28;20103;-72
2023/04/28 01:57:03;;;;;;;2.17;1.10;;;13.60;53.10;;;;;;5073618;28;20039;-72
2023/04/28 01:59:29;;;;;;;2.13;1.35;;;13.60;53.20;;;;;;5073533;28;20074;-72
2023/04/28 02:01:54;;;;;;;2.58;1.10;;;13.60;53.20;;;;;;5073553;28;20040;-72
2023/04/28 02:04:20;;;;;;;2.90;1.33;;;13.70;53.40;;;;;;5073392;28;20020;-72
2023/04/28 02:06:45;;;;;;;3.67;1.10;;;13.60;53.40;;;;;;5072270;28;20046;-72
2023/04/28 02:09:11;;;;;;;2.05;1.05;;;13.70;52.70;;;;;;5073401;28;20481;-72
2023/04/28 02:11:36;;;;;;;1.52;0.90;;;13.70;52.90;;;;;;5072694;28;20036;-72
2023/04/28 02:14:02;;;;;;;1.45;1.05;;;13.70;53.00;;;;;;5073101;28;20063;-72
2023/04/28 02:16:27;;;;;;;2.40;1.23;;;13.70;52.90;;;;;;5073260;28;20052;-72
2023/04/28 02:18:53;;;;;;;1.00;0.90;;;13.70;52.80;;;;;;5073294;28;20024;-72
2023/04/28 02:21:18;;;;;;;1.60;1.27;;;13.70;52.90;;;;;;5073186;28;20024;-71
2023/04/28 02:23:44;;;;;;;2.17;1.00;;;13.70;53.00;;;;;;5073326;28;20028;-72
2023/04/28 02:26:10;;;;;;;3.15;1.10;;;13.70;54.20;;;;;;5073185;28;20028;-72
2023/04/28 02:28:35;;;;;;;1.85;1.00;;;13.70;54.20;;;;;;5073010;28;20039;-73
2023/04/28 02:31:05;;;;;;;3.00;1.40;;;13.70;54.20;;;;;;5072900;28;20024;-72
2023/04/28 02:33:31;;;;;;;1.48;1.30;;;13.70;54.30;;;;;;5073066;28;20167;-72
2023/04/28 02:36:01;;;;;;;3.60;1.60;;;13.70;54.70;;;;;;5072957;28;20064;-72
2023/04/28 02:38:26;;;;;;;1.98;1.60;;;13.70;55.00;;;;;;5072910;28;20432;-73
2023/04/28 02:40:59;;;;;;;3.65;2.20;;;13.70;56.00;;;;;;5072696;28;20107;-74
2023/04/28 02:43:26;;;;;;;5.15;2.20;;;13.70;57.00;;;;;;5073023;28;20028;-72
2023/04/28 02:45:52;;;;;;;5.18;1.70;;;13.70;57.40;;;;;;5053829;28;20104;-73
2023/04/28 02:48:17;;;;;;;4.82;2.10;;;13.70;58.30;;;;;;5052612;28;20032;-73
2023/04/28 02:50:44;;;;;;;4.82;2.15;;;13.60;58.10;;;;;;5052848;28;20025;-72
2023/04/28 02:53:10;;;;;;;3.08;2.08;;;13.60;58.80;;;;;;5052939;28;20052;-72
2023/04/28 02:55:36;;;;;;;6.70;1.73;;;13.60;59.40;;;;;;5052791;28;20028;-73
2023/04/28 02:58:01;;;;;;;3.67;1.60;;;13.60;59.50;;;;;;5052931;28;20167;-72
2023/04/28 03:00:27;;;;;;;5.45;1.90;;;13.60;59.70;;;;;;5052771;28;20025;-73
2023/04/28 03:02:53;;;;;;;5.75;2.38;;;13.50;60.20;;;;;;5052783;28;20037;-73
2023/04/28 03:05:19;;;;;;;3.78;2.10;;;13.60;59.90;;;;;;5052678;28;20017;-72
2023/04/28 03:07:44;;;;;;;4.30;2.00;;;13.60;60.60;;;;;;5052758;28;20107;-72
2023/04/28 03:10:10;;;;;;;2.53;2.00;;;13.50;61.80;;;;;;5052892;28;20022;-72
2023/04/28 03:12:35;;;;;;;3.17;2.08;;;13.40;62.40;;;;;;5052678;28;20029;-72
2023/04/28 03:15:01;;;;;;;2.65;1.60;;;13.40;62.30;;;;;;5052764;28;20029;-72
2023/04/28 03:17:27;;;;;;;4.00;1.60;;;13.40;62.80;;;;;;5052631;28;20017;-73
2023/04/28 03:19:52;;;;;;;3.45;1.55;;;13.40;63.70;;;;;;5052743;28;20128;-72
2023/04/28 03:22:18;;;;;;;2.13;1.50;;;13.50;64.50;;;;;;5052519;28;20122;-72
2023/04/28 03:24:43;;;;;;;5.63;2.17;;;13.40;64.50;;;;;;5038632;28;20036;-72
2023/04/28 03:27:09;;;;;;;3.40;2.53;;;13.40;65.00;;;;;;5056385;28;20041;-73
2023/04/28 03:29:34;;;;;;;3.20;2.30;;;13.40;65.30;;;;;;5056577;28;20032;-73
2023/04/28 03:32:01;;;;;;;4.60;2.95;;;13.30;65.60;;;;;;5056432;28;20036;-72
2023/04/28 03:34:26;;;;;;;4.28;2.35;;;13.30;66.20;;;;;;5056564;28;20095;-73
2023/04/28 03:36:52;;;;;;;5.70;3.05;;;13.20;66.60;;;;;;5056554;28;20053;-72
2023/04/28 03:39:17;;;;;;;16.42;8.82;;;13.20;67.10;;;;;;5056261;28;20024;-72
2023/04/28 03:41:43;;;;;;;13.55;8.20;;;13.20;67.30;;;;;;5055955;28;20037;-72
2023/04/28 03:44:08;;;;;;;17.13;9.70;;;13.20;68.10;;;;;;5056047;28;20029;-72
2023/04/28 03:46:34;;;;;;;15.13;8.48;;;13.20;68.10;;;;;;5056308;28;20033;-72
2023/04/28 03:49:02;;;;;;;15.18;7.63;;;13.20;68.50;;;;;;5056100;28;20025;-72
2023/04/28 03:51:28;;;;;;;9.93;5.60;;;13.20;69.00;;;;;;5056076;28;20025;-73
2023/04/28 03:53:54;;;;;;;5.28;3.20;;;13.10;69.70;;;;;;5038146;28;20025;-75
2023/04/28 03:56:20;;;;;;;3.80;2.42;;;13.10;70.30;;;;;;5055977;28;20088;-74
2023/04/28 03:58:46;;;;;;;3.03;2.10;;;13.10;71.10;;;;;;5055829;28;20389;-73
2023/04/28 04:01:11;;;;;;;3.63;2.25;;;13.00;71.40;;;;;;5055886;28;20037;-73
2023/04/28 04:03:37;;;;;;;3.42;2.40;;;13.00;72.20;;;;;;5055846;28;20033;-72
2023/04/28 04:06:03;;;;;;;4.75;3.20;;;13.00;72.60;;;;;;5055979;28;20029;-74
2023/04/28 04:08:29;;;;;;;3.28;2.28;;;13.00;73.30;;;;;;5055789;28;20029;-73
2023/04/28 04:10:54;;;;;;;4.63;2.58;;;12.90;73.50;;;;;;5055622;28;20048;-75
2023/04/28 04:13:21;;;;;;;7.82;3.03;;;12.90;74.60;;;;;;5055940;28;20029;-73
2023/04/28 04:15:46;;;;;;;3.75;2.42;;;12.80;75.70;;;;;;5055744;28;20036;-73
2023/04/28 04:18:13;;;;;;;4.60;2.50;;;12.80;76.30;;;;;;5055504;28;20436;-72
2023/04/28 04:20:39;;;;;;;3.60;2.75;;;12.70;77.00;;;;;;5055485;28;20017;-72
2023/04/28 04:23:04;;;;;;;4.28;2.80;;;12.70;78.00;;;;;;5037519;28;20499;-74
2023/04/28 04:25:31;;;;;;;3.45;2.60;;;12.60;79.10;;;;;;5055119;28;20092;-72
2023/04/28 04:27:57;;;;;;;5.50;3.22;;;12.50;79.40;;;;;;5037476;28;20031;-72
2023/04/28 04:30:23;;;;;;;4.05;2.70;;;12.50;80.00;;;;;;5054983;28;20021;-72
2023/04/28 04:32:48;;;;;;;5.20;2.88;;;12.50;80.30;;;;;;5055387;28;20021;-73
2023/04/28 04:35:14;;;;;;;8.23;3.13;;;12.40;80.10;;;;;;5054419;28;20029;-72
2023/04/28 04:37:40;;;;;;;4.80;3.17;;;12.40;80.30;;;;;;5054877;28;20045;-72
2023/04/28 04:40:06;;;;;;;5.15;3.00;;;12.40;80.20;;;;;;5055160;28;20470;-73
2023/04/28 04:42:32;;;;;;;4.00;2.67;;;12.40;80.70;;;;;;5054982;28;20055;-72
2023/04/28 04:44:57;;;;;;;3.50;2.72;;;12.40;80.50;;;;;;5037280;28;20070;-72
2023/04/28 04:47:23;;;;;;;7.35;3.35;;;12.40;80.70;;;;;;5054956;28;20505;-73
2023/04/28 04:49:49;;;;;;;6.65;3.45;;;12.40;80.50;;;;;;5055010;28;20059;-73
2023/04/28 04:52:15;;;;;;;6.95;3.42;;;12.40;80.50;;;;;;5054756;28;20025;-73
2023/04/28 04:54:41;;;;;;;8.38;3.05;;;12.40;81.20;;;;;;5054750;28;20076;-72
2023/04/28 04:57:06;;;;;;;5.40;3.55;;;12.40;80.80;;;;;;5054895;28;20143;-73
2023/04/28 04:59:32;;;;;;;5.28;3.58;;;12.40;80.90;;;;;;5054712;28;20048;-72
2023/04/28 05:01:58;;;;;;;7.43;3.65;;;12.40;80.90;;;;;;5036730;28;20390;-72
2023/04/28 05:04:23;;;;;;;6.10;3.00;;;12.40;80.90;;;;;;5054650;28;20373;-72
2023/04/28 05:06:49;;;;;;;4.93;3.50;;;12.30;81.10;;;;;;5054392;28;20029;-72
2023/04/28 05:09:14;;;;;;;5.03;3.25;;;12.30;81.50;;;;;;5054445;28;20040;-73
2023/04/28 05:11:40;;;;;;;4.43;2.78;;;12.30;81.60;;;;;;5054625;28;20489;-72
2023/04/28 05:14:05;;;;;;;7.90;4.22;;;12.30;81.40;;;;;;5054569;28;20021;-72
2023/04/28 05:16:31;;;;;;;5.32;4.15;;;12.30;81.80;;;;;;5054242;28;20083;-72
2023/04/28 05:18:57;;;;;;;5.50;3.80;;;12.30;81.90;;;;;;5057602;28;20511;-72
2023/04/28 05:21:22;;;;;;;6.82;4.20;;;12.40;81.70;;;;;;5054348;28;20075;-73
2023/04/28 05:23:48;;;;;;;5.22;3.20;;;12.40;81.50;;;;;;5054152;28;20033;-73
2023/04/28 05:26:14;;;;;;;6.68;3.78;;;12.40;81.50;;;;;;5054020;28;20236;-72
2023/04/28 05:28:40;;;;;;;4.95;3.17;;;12.40;81.50;;;;;;5054188;28;20091;-73
2023/04/28 05:31:06;;;;;;;5.38;3.70;;;12.50;81.30;;;;;;5054060;28;20017;-72
2023/04/28 05:33:31;;;;;;;5.45;3.33;;;12.50;81.30;;;;;;5053262;28;20070;-74
2023/04/28 05:35:57;;;;;;;4.30;3.28;;;12.50;81.50;;;;;;5056988;28;20085;-71
2023/04/28 05:38:22;;;;;;;4.68;3.13;;;12.60;81.00;;;;;;5073649;28;20040;-73
2023/04/28 05:40:48;;;;;;;4.68;3.22;;;12.70;81.40;;;;;;5073394;28;20486;-72
2023/04/28 05:43:13;;;;;;;7.03;3.40;;;12.70;81.00;;;;;;5073696;28;20040;-73
2023/04/28 05:45:39;;;;;;;3.65;2.67;;;12.80;80.80;;;;;;5073533;28;20028;-72
2023/04/28 05:48:05;;;;;;;3.45;2.63;;;12.90;80.80;;;;;;5073706;28;20067;-72
2023/04/28 05:50:31;;;;;;;3.72;2.78;;;12.90;80.60;;;;;;5073498;28;20017;-72
2023/04/28 05:52:57;;;;;;;4.05;2.67;;;13.00;80.40;;;;;;5073507;28;20052;-72
2023/04/28 05:55:22;;;;;;;2.95;2.10;;;13.00;80.10;;;;;;5073467;28;20568;-73
2023/04/28 05:57:48;;;;;;;3.00;2.05;;;13.10;80.00;;;;;;5073516;28;20373;-72
2023/04/28 06:00:14;;;;;;;4.05;2.08;;;13.20;79.60;;;;;;5073267;28;20376;-72
2023/04/28 06:02:39;;;;;;;2.22;2.03;;;13.20;79.20;;;;;;5073444;28;20040;-72
2023/04/28 06:05:06;;;;;;;3.65;2.10;;;13.20;79.00;;;;;;5073355;28;20265;-74
2023/04/28 06:07:32;;;;;;;2.97;2.47;;;13.20;78.90;;;;;;5073248;28;20032;-74
2023/04/28 06:09:57;;;;;;;3.60;2.05;;;13.30;78.90;;;;;;5073622;28;20499;-74
2023/04/28 06:12:23;;;;;;;2.33;1.80;;;13.30;78.70;;;;;;5073510;28;20055;-74
2023/04/28 06:14:48;;;;;;;2.08;1.63;;;13.40;78.70;;;;;;5073346;28;20017;-73
2023/04/28 06:17:14;;;;;;;2.20;1.55;;;13.40;78.70;;;;;;5073277;28;20033;-73
2023/04/28 06:19:40;;;;;;;2.28;1.75;;;13.40;78.90;;;;;;5074037;28;20035;-78
2023/04/28 06:22:05;;;;;;;2.10;1.60;;;13.40;79.10;;;;;;5073186;28;20044;-73
2023/04/28 06:24:31;;;;;;;1.50;1.40;;;13.40;79.00;;;;;;5078271;28;20032;-74
2023/04/28 06:26:56;;;;;;;1.95;1.63;;;13.40;79.10;;;;;;5063442;28;20020;-74
2023/04/28 06:29:23;;;;;;;2.38;1.33;;;13.50;79.10;;;;;;5083002;28;20024;-74
2023/04/28 06:31:48;;;;;;;1.35;1.20;;;13.60;79.90;;;;;;5081601;28;20029;-74
2023/04/28 06:34:14;;;;;;;1.48;1.38;;;13.60;79.10;;;;;;5085708;28;20031;-73
2023/04/28 06:36:40;;;;;;;2.28;1.48;;;13.60;78.60;;;;;;5084289;28;20048;-74
2023/04/28 06:39:05;;;;;;;2.00;1.80;;;13.60;79.20;;;;;;5080989;28;20353;-74
2023/04/28 06:41:31;;;;;;;5.07;1.73;;;13.60;79.50;;;;;;5078796;28;20070;-74
2023/04/28 06:43:56;;;;;;;2.20;1.80;;;13.60;79.10;;;;;;5072735;28;20030;-74
2023/04/28 06:46:22;;;;;;;2.75;1.70;;;13.70;79.00;;;;;;5072617;28;20078;-74
2023/04/28 06:48:48;;;;;;;1.92;1.50;;;13.70;78.70;;;;;;5072690;28;20063;-73
2023/04/28 06:51:14;;;;;;;1.38;1.25;;;13.70;78.80;;;;;;5072712;28;20028;-73
2023/04/28 06:53:39;;;;;;;1.30;1.20;;;13.70;78.60;;;;;;5072689;28;20191;-73
2023/04/28 06:56:05;;;;;;;2.20;1.83;;;13.70;79.00;;;;;;5072623;28;20021;-72
2023/04/28 06:58:31;;;;;;;1.23;1.00;;;13.80;78.70;;;;;;5076571;28;20021;-73
2023/04/28 07:00:56;;;;;;;1.75;1.38;;;13.80;78.70;;;;;;5061141;28;20031;-73
2023/04/28 07:03:22;;;;;;;2.05;1.50;;;13.80;78.90;;;;;;5079108;28;20056;-73
2023/04/28 07:05:47;;;;;;;2.17;1.20;;;14.00;78.80;;;;;;5078569;28;20115;-75
2023/04/28 07:08:13;;;;;;;3.13;1.45;;;14.10;78.40;;;;;;5078984;28;20067;-73
2023/04/28 07:10:39;;;;;;;2.10;1.10;;;14.10;78.20;;;;;;5078997;28;20044;-73
2023/04/28 07:13:04;;;;;;;2.25;1.08;;;14.20;77.80;;;;;;5079018;28;20119;-73
2023/04/28 07:15:30;;;;;;;1.77;1.40;;;14.20;77.70;;;;;;5078935;28;20021;-75
2023/04/28 07:17:56;;;;;;;1.13;1.08;;;14.20;77.10;;;;;;5060650;28;20036;-73
2023/04/28 07:20:21;;;;;;;1.58;1.30;;;14.20;77.80;;;;;;5078991;28;20020;-72
2023/04/28 07:22:47;;;;;;;1.70;1.40;;;14.20;77.40;;;;;;5078816;28;20047;-74
2023/04/28 07:25:13;;;;;;;6.38;1.80;;;14.20;76.80;;;;;;5078863;28;20200;-74
2023/04/28 07:27:38;;;;;;;15.85;3.50;;;14.20;77.40;;;;;;5078762;28;20052;-74
2023/04/28 07:30:04;;;;;;;7.10;2.25;;;14.40;77.40;;;;;;5078631;28;20024;-74
2023/04/28 07:32:30;;;;;;;3.33;1.65;;;14.60;76.10;;;;;;5078423;28;20103;-75
2023/04/28 07:34:55;;;;;;;1.40;0.93;;;14.90;74.20;;;;;;5060650;28;20123;-74
2023/04/28 07:37:22;;;;;;;0.80;0.80;;;15.10;73.20;;;;;;5078108;28;20501;-74
2023/04/28 07:39:47;;;;;;;3.45;1.08;;;15.00;73.70;;;;;;5078342;28;20028;-75
2023/04/28 07:42:13;;;;;;;1.10;1.00;;;14.80;74.50;;;;;;5060222;28;20480;-76
2023/04/28 07:44:38;;;;;;;7.90;1.45;;;14.80;75.30;;;;;;5078574;28;20024;-77
2023/04/28 07:47:04;;;;;;;4.28;1.00;;;14.80;75.60;;;;;;5078706;28;20032;-76
2023/04/28 07:49:31;;;;;;;3.00;1.10;;;14.90;75.50;;;;;;5079025;28;20127;-76
2023/04/28 07:51:56;;;;;;;2.38;1.30;;;15.00;74.60;;;;;;5078820;28;20079;-73
2023/04/28 07:54:22;;;;;;;2.63;1.27;;;15.20;74.30;;;;;;5078735;28;20025;-75
2023/04/28 07:56:49;;;;;;;3.00;1.08;;;15.40;74.40;;;;;;5078781;28;20107;-74
2023/04/28 07:59:14;;;;;;;2.13;1.23;;;15.40;73.30;;;;;;5078787;28;20027;-74
2023/04/28 08:01:41;;;;;;;2.55;1.20;;;15.60;72.60;;;;;;5078550;28;20020;-73
2023/04/28 08:04:07;;;;;;;1.20;0.80;;;15.60;72.80;;;;;;5078614;28;20052;-73
2023/04/28 08:06:33;;;;;;;3.53;1.00;;;15.50;73.50;;;;;;5078580;28;20027;-73
2023/04/28 08:09:01;;;;;;;0.98;0.77;;;15.30;74.80;;;;;;5077038;28;20502;-74
2023/04/28 08:11:26;;;;;;;2.17;0.85;;;15.10;75.50;;;;;;5075073;28;20175;-74
2023/04/28 08:13:52;;;;;;;2.58;0.68;;;14.90;76.50;;;;;;5057478;28;20119;-74
2023/04/28 08:16:18;;;;;;;1.30;0.63;;;14.80;77.40;;;;;;5075054;28;20138;-74
2023/04/28 08:18:44;;;;;;;1.08;0.82;;;14.60;78.00;;;;;;5074949;28;20081;-74
2023/04/28 08:21:10;;;;;;;1.92;0.65;;;14.50;78.90;;;;;;5075108;28;20021;-74
2023/04/28 08:23:35;;;;;;;0.60;0.60;;;14.30;80.80;;;;;;5075165;28;20093;-74
2023/04/28 08:26:02;;;;;;;1.60;0.70;;;14.30;80.90;;;;;;5075235;28;20029;-74
2023/04/28 08:28:27;;;;;;;1.60;0.80;;;14.30;80.90;;;;;;5075430;28;20094;-73
2023/04/28 08:30:54;;;;;;;0.80;0.60;;;14.30;81.20;;;;;;5074907;28;20500;-73
2023/04/28 08:33:19;;;;;;;2.58;0.77;;;14.30;81.20;;;;;;5074992;28;20052;-73
2023/04/28 08:35:45;;;;;;;1.15;0.50;;;14.30;82.00;;;;;;5074837;28;20075;-73
2023/04/28 08:38:13;;;;;;;0.80;0.30;;;14.40;81.70;;;;;;5074744;28;20473;-73
2023/04/28 08:40:39;;;;;;;0.70;0.52;;;14.50;81.10;;;;;;5074832;28;20045;-73
2023/04/28 08:43:05;;;;;;;2.42;1.00;;;14.50;81.00;;;;;;5074891;28;20043;-74
2023/04/28 08:45:41;;;;;;;1.45;1.20;;;14.50;81.10;;;;;;5074612;28;20017;-74
2023/04/28 08:48:19;;;;;;;1.33;0.32;;;14.60;81.20;;;;;;5074523;28;20193;-73
2023/04/28 08:50:52;;;;;;;0.30;0.20;;;14.70;80.00;;;;;;5074764;28;20039;-73
2023/04/28 08:53:26;;;;;;;0.75;0.00;;;14.70;79.70;;;;;;5074183;28;20082;-74
2023/04/28 08:55:56;;;;;;;0.10;0.10;;;14.70;80.30;;;;;;5074470;28;20071;-76
2023/04/28 08:58:23;;;;;;;2.28;0.30;;;14.60;80.60;;;;;;5074424;28;20043;-74
2023/04/28 09:00:50;;;;;;;0.38;0.22;;;14.60;80.30;;;;;;5074440;28;20469;-73
2023/04/28 09:03:15;;;;;;;0.90;0.35;;;14.50;80.30;;;;;;5074487;28;20051;-75
2023/04/28 09:05:42;;;;;;;0.85;0.20;;;14.50;81.30;;;;;;5074170;28;20020;-73
2023/04/28 09:08:07;;;;;;;0.52;0.30;;;14.60;81.40;;;;;;5074195;28;20028;-73
2023/04/28 09:10:33;;;;;;;0.30;0.30;;;14.60;81.50;;;;;;5074179;28;20020;-74
2023/04/28 09:13:33;;;;;;;0.63;0.20;;;14.50;81.30;;;;;;5074201;28;20111;-79
2023/04/28 09:16:01;;;;;;;0.40;0.20;;;14.50;81.30;;;;;;5074212;28;20464;-74
2023/04/28 09:18:28;;;;;;;0.98;0.20;;;14.40;81.50;;;;;;5073994;28;20423;-74
2023/04/28 09:21:07;;;;;;;2.05;0.30;;;14.40;81.50;;;;;;5073623;28;20487;-74
2023/04/28 09:23:34;;;;;;;0.20;0.20;;;14.30;82.30;;;;;;5073817;28;20040;-76
2023/04/28 09:26:06;;;;;;;0.10;0.10;;;14.40;82.10;;;;;;5073900;28;20012;-74
2023/04/28 09:28:33;;;;;;;1.65;0.30;;;14.40;82.10;;;;;;5074304;28;20074;-74
2023/04/28 09:30:59;;;;;;;0.20;0.20;;;14.50;82.30;;;;;;5073599;28;20532;-76
2023/04/28 09:33:25;;;;;;;2.05;0.38;;;14.60;81.90;;;;;;5073140;28;20033;-73
2023/04/28 09:35:51;;;;;;;0.35;0.20;;;14.60;81.30;;;;;;5073169;28;20606;-74
2023/04/28 09:38:18;;;;;;;1.65;0.40;;;14.60;81.60;;;;;;5073029;28;20021;-76
2023/04/28 09:41:01;;;;;;;0.80;0.40;;;14.60;82.60;;;;;;5073367;28;20025;-75
2023/04/28 09:43:31;;;;;;;0.25;0.20;;;14.70;82.00;;;;;;5073481;28;20058;-75
2023/04/28 09:45:59;;;;;;;2.38;0.40;;;14.80;80.80;;;;;;5070578;28;20047;-77
2023/04/28 09:48:35;;;;;;;0.32;0.30;;;14.80;81.00;;;;;;5073742;28;20067;-74
2023/04/28 09:51:03;;;;;;;0.57;0.20;;;14.90;81.30;;;;;;5073392;28;20031;-73
2023/04/28 09:53:29;;;;;;;0.90;0.73;;;15.00;81.50;;;;;;5073555;28;20052;-75
2023/04/28 09:55:57;;;;;;;3.88;1.20;;;15.10;81.10;;;;;;5073332;28;20056;-75
2023/04/28 09:58:25;;;;;;;2.85;0.20;;;15.10;80.20;;;;;;5073129;28;20035;-75
2023/04/28 10:00:57;;;;;;;0.32;0.25;;;15.20;79.70;;;;;;5072946;28;20027;-73
2023/04/28 10:03:28;;;;;;;0.20;0.20;;;15.40;79.40;;;;;;5072974;28;20040;-75
2023/04/28 10:05:56;;;;;;;0.60;0.30;;;15.40;80.60;;;;;;5072780;28;20098;-75
2023/04/28 10:08:23;;;;;;;0.90;0.45;;;15.60;78.40;;;;;;5072849;28;20033;-75
2023/04/28 10:10:51;;;;;;;0.60;0.50;;;15.80;79.80;;;;;;5072826;28;20021;-74
2023/04/28 10:13:18;;;;;;;1.63;0.68;;;15.80;77.80;;;;;;5054861;28;20020;-75
2023/04/28 10:15:45;;;;;;;1.42;0.60;;;15.80;78.20;;;;;;5078971;28;20090;-76
2023/04/28 10:18:13;;;;;;;0.20;0.17;;;15.90;79.00;;;;;;5072912;28;20013;-76
2023/04/28 10:20:41;;;;;;;0.20;0.20;;;15.90;76.80;;;;;;5072776;28;20495;-75
2023/04/28 10:23:35;;;;;;;0.40;0.15;;;15.90;76.50;;;;;;5072759;28;20071;-76
2023/04/28 10:26:02;;;;;;;0.77;0.20;;;15.80;76.90;;;;;;5072823;28;20020;-76
2023/04/28 10:28:28;;;;;;;0.32;0.30;;;15.90;77.30;;;;;;5072820;28;20032;-74
2023/04/28 10:31:15;;;;;;;0.13;0.13;;;15.90;75.60;;;;;;5054660;28;20023;-73
2023/04/28 10:33:41;;;;;;;1.65;0.30;;;16.00;76.70;;;;;;5071859;28;20035;-75
2023/04/28 10:36:07;;;;;;;0.40;0.32;;;15.90;76.00;;;;;;5072558;28;20381;-75
2023/04/28 10:38:34;;;;;;;0.63;0.38;;;16.00;75.80;;;;;;5072640;28;20060;-76
2023/04/28 10:41:02;;;;;;;0.63;0.20;;;15.90;77.80;;;;;;5072762;28;20031;-75
2023/04/28 10:43:54;;;;;;;0.93;0.25;;;15.80;76.80;;;;;;5072460;28;20028;-75
2023/04/28 10:46:19;;;;;;;0.77;0.50;;;15.60;77.80;;;;;;5069382;28;20037;-75
2023/04/28 10:48:48;;;;;;;0.50;0.40;;;15.70;77.70;;;;;;5073032;28;20034;-76
2023/04/28 10:51:13;;;;;;;0.15;0.15;;;15.70;78.00;;;;;;5072827;28;20373;-75
2023/04/28 10:53:42;;;;;;;0.57;0.25;;;15.90;76.70;;;;;;5072805;28;20016;-76
2023/04/28 10:56:15;;;;;;;0.30;0.30;;;16.10;76.00;;;;;;5072858;28;20044;-75
2023/04/28 10:58:42;;;;;;;2.72;0.40;;;16.30;75.80;;;;;;5072993;28;20024;-76
2023/04/28 11:01:20;;;;;;;0.20;0.20;;;16.30;74.40;;;;;;5072672;28;20012;-75
2023/04/28 11:04:09;;;;;;;0.50;0.20;;;16.30;74.00;;;;;;5072424;28;20032;-78
2023/04/28 11:06:38;;;;;;;0.30;0.30;;;16.10;74.90;;;;;;5072130;28;20020;-76
2023/04/28 11:09:16;;;;;;;0.28;0.28;;;16.00;75.00;;;;;;5072518;28;20086;-74
2023/04/28 11:11:56;;;;;;;0.73;0.43;;;16.10;75.50;;;;;;5072546;28;20021;-76
2023/04/28 11:14:22;;;;;;;0.77;0.40;;;16.00;75.90;;;;;;5072903;28;20095;-74
2023/04/28 11:16:58;;;;;;;1.52;0.80;;;16.10;75.10;;;;;;5072443;28;20059;-75
2023/04/28 11:19:27;;;;;;;0.85;0.47;;;15.90;75.60;;;;;;5054852;28;20477;-73
2023/04/28 11:21:55;;;;;;;0.95;0.65;;;16.10;75.20;;;;;;5072405;28;20060;-75
2023/04/28 11:24:21;;;;;;;0.50;0.50;;;16.10;74.60;;;;;;5073107;28;20085;-75
2023/04/28 11:26:47;;;;;;;2.30;0.70;;;16.00;75.10;;;;;;5073143;28;20017;-75
2023/04/28 11:29:16;;;;;;;0.93;0.20;;;16.00;75.10;;;;;;5076197;28;20110;-75
2023/04/28 11:31:50;;;;;;;1.48;0.30;;;15.90;75.20;;;;;;5072408;28;20063;-75
2023/04/28 11:34:20;;;;;;;0.32;0.25;;;15.90;75.50;;;;;;5072443;28;20029;-75
2023/04/28 11:36:46;;;;;;;1.67;1.20;;;15.90;76.20;;;;;;5071952;28;20053;-75
2023/04/28 11:39:13;;;;;;;0.30;0.30;;;16.00;75.60;;;;;;5072131;28;20016;-75
2023/04/28 11:41:43;;;;;;;1.40;0.80;;;15.90;75.90;;;;;;5072378;28;20115;-74
2023/04/28 11:44:13;;;;;;;1.00;0.50;;;15.70;76.70;;;;;;5073806;28;20020;-75
2023/04/28 11:46:49;;;;;;;1.05;0.45;;;15.70;76.70;;;;;;5058279;28;20357;-75
2023/04/28 11:49:14;;;;;;;0.82;0.47;;;15.70;76.60;;;;;;5076034;28;20024;-76
2023/04/28 11:51:41;;;;;;;2.60;0.50;;;15.70;77.20;;;;;;5076124;28;20044;-76
2023/04/28 11:54:10;;;;;;;0.68;0.40;;;15.70;77.00;;;;;;5076292;28;20096;-74
2023/04/28 11:56:37;;;;;;;2.40;0.40;;;15.80;77.00;;;;;;5075915;28;20549;-74
2023/04/28 11:59:06;;;;;;;1.13;0.93;;;15.90;76.70;;;;;;5076237;28;20047;-74
2023/04/28 12:01:36;;;;;;;1.80;0.40;;;15.90;76.90;;;;;;5075855;28;20016;-75
2023/04/28 12:04:02;;;;;;;0.45;0.30;;;15.90;77.00;;;;;;5076161;28;20376;-75
2023/04/28 12:06:28;;;;;;;0.82;0.35;;;15.90;76.90;;;;;;5075524;28;20017;-76
2023/04/28 12:08:54;;;;;;;0.32;0.30;;;15.80;77.50;;;;;;5076222;28;20020;-75
2023/04/28 12:11:20;;;;;;;0.20;0.20;;;15.90;76.40;;;;;;5074830;28;20023;-74
2023/04/28 12:14:03;;;;;;;0.68;0.10;;;16.00;75.70;;;;;;5075455;28;20047;-74
2023/04/28 12:16:43;;;;;;;0.70;0.20;;;16.30;75.10;;;;;;5075474;28;20112;-73
2023/04/28 12:19:10;;;;;;;0.10;0.10;;;16.40;73.70;;;;;;5075728;28;20031;-74
2023/04/28 12:21:37;;;;;;;0.40;0.30;;;16.60;73.50;;;;;;5075249;28;20028;-75
2023/04/28 12:24:21;;;;;;;3.97;0.28;;;16.70;73.20;;;;;;5075525;28;20381;-74
2023/04/28 12:26:47;;;;;;;2.63;0.40;;;16.80;73.10;;;;;;5075877;28;20021;-81
2023/04/28 12:29:36;;;;;;;0.50;0.20;;;16.80;73.10;;;;;;5077028;28;20111;-77
2023/04/28 12:32:02;;;;;;;0.63;0.30;;;16.70;73.20;;;;;;5075454;28;20111;-74
2023/04/28 12:34:28;;;;;;;0.20;0.20;;;16.60;72.20;;;;;;5075158;28;20020;-73
2023/04/28 12:36:54;;;;;;;2.17;0.50;;;16.50;73.10;;;;;;5074964;28;20531;-82
2023/04/28 12:39:21;;;;;;;2.03;0.20;;;16.70;73.10;;;;;;5075155;28;20056;-74
2023/04/28 12:41:47;;;;;;;0.28;0.28;;;16.90;72.40;;;;;;5075608;28;20091;-75
2023/04/28 12:44:14;;;;;;;0.43;0.30;;;16.90;71.60;;;;;;5076015;28;20024;-75